Time;durP1;ratioP1;P1;durP2;ratioP2;P2;SDS_P1;SDS_P2;PMS_P1;PMS_P2;Temp;Humidity;BMP_temperature;BMP_pressure;BME280_temperature;BME280_humidity;BME280_pressure;Samples;Min_cycle;Max_cycle;Signal;HPM_P1;HPM_P2
2022/01/24 00:01:56;;;;;;;7.50;6.90;;;;;;;0.11;100.00;98684.47;4958705;28;20210;-56
2022/01/24 00:04:25;;;;;;;6.93;6.43;;;;;;;0.19;100.00;98683.22;4959307;28;20237;-58
2022/01/24 00:06:53;;;;;;;7.17;6.57;;;;;;;0.31;100.00;98687.78;4957934;28;20213;-57
2022/01/24 00:09:21;;;;;;;7.90;7.10;;;;;;;0.30;100.00;98685.28;4956469;28;20265;-59
2022/01/24 00:12:01;;;;;;;8.87;7.50;;;;;;;0.52;100.00;98692.78;4961047;28;20266;-59
2022/01/24 00:17:31;;;;;;;9.57;8.57;;;;;;;0.46;100.00;98686.13;4954242;28;20231;-55
2022/01/24 00:28:22;;;;;;;7.93;7.13;;;;;;;0.46;100.00;98686.13;4955032;28;20262;-59
2022/01/24 00:30:52;;;;;;;7.10;6.50;;;;;;;0.59;100.00;98690.69;4959668;28;20287;-59
2022/01/24 00:33:21;;;;;;;6.27;5.80;;;;;;;0.62;100.00;98686.13;4956090;28;20222;-61
2022/01/24 00:35:50;;;;;;;7.77;7.07;;;;;;;0.68;100.00;98682.34;4958379;28;20265;-60
2022/01/24 00:38:18;;;;;;;7.50;6.80;;;;;;;0.85;100.00;98684.84;4954259;28;20311;-57
2022/01/24 00:40:48;;;;;;;7.17;6.53;;;;;;;0.79;100.00;98684.38;4959442;28;20214;-58
2022/01/24 00:43:25;;;;;;;7.27;6.07;;;;;;;0.57;100.00;98688.16;4954619;28;20230;-57
2022/01/24 00:46:01;;;;;;;6.70;6.20;;;;;;;0.58;100.00;98689.84;4958535;28;20214;-57
2022/01/24 00:48:41;;;;;;;6.70;6.20;;;;;;;0.60;100.00;98689.75;4959047;28;20244;-61
2022/01/24 00:54:42;;;;;;;6.20;5.70;;;;;;;0.52;100.00;98691.00;4955417;28;20209;-57
2022/01/24 00:56:52;;;;;;;6.27;5.77;;;;;;;0.64;100.00;98679.06;4956943;28;20807;-58
2022/01/24 00:59:21;;;;;;;6.77;6.23;;;;;;;0.53;100.00;98676.19;4955201;28;20730;-57
2022/01/24 01:01:50;;;;;;;6.60;6.10;;;;;;;0.41;100.00;98675.09;4957276;28;20332;-57
2022/01/24 01:04:21;;;;;;;7.50;6.90;;;;;;;0.39;100.00;98674.34;4959985;28;20731;-59
2022/01/24 01:06:50;;;;;;;7.27;6.67;;;;;;;0.30;100.00;98674.84;4959335;28;20257;-60
2022/01/24 01:20:38;;;;;;;5.37;4.87;;;;;;;0.45;100.00;98666.19;4910489;29;20697;-52
2022/01/24 01:23:07;;;;;;;6.70;5.80;;;;;;;0.41;100.00;98656.84;4911608;29;20242;-57
2022/01/24 01:25:37;;;;;;;6.07;5.60;;;;;;;0.43;100.00;98653.25;4911729;29;20212;-56
2022/01/24 01:28:06;;;;;;;10.03;6.50;;;;;;;0.41;100.00;98665.53;4911302;29;20231;-60
2022/01/24 01:30:39;;;;;;;6.50;6.00;;;;;;;0.38;100.00;98668.28;4912264;29;20264;-61
2022/01/24 01:33:16;;;;;;;6.33;5.93;;;;;;;0.40;100.00;98663.84;4911208;29;20235;-61
2022/01/24 01:35:58;;;;;;;6.83;6.17;;;;;;;0.39;100.00;98659.56;4914032;29;20258;-59
2022/01/24 01:52:26;;;;;;;5.77;5.37;;;;;;;0.61;100.00;98662.75;4927623;29;20212;-56
2022/01/24 01:55:10;;;;;;;5.90;5.50;;;;;;;0.52;100.00;98658.88;4922075;29;20235;-58
2022/01/24 01:57:38;;;;;;;5.60;5.20;;;;;;;0.64;100.00;98646.94;4921299;29;20231;-61
2022/01/24 02:00:09;;;;;;;6.03;5.50;;;;;;;0.52;100.00;98645.81;4919522;29;20330;-60
2022/01/24 02:02:37;;;;;;;5.87;5.47;;;;;;;0.61;100.00;98637.50;4918026;29;20753;-60
2022/01/24 02:05:08;;;;;;;6.03;5.53;;;;;;;0.59;100.00;98631.53;4918307;29;20315;-58
2022/01/24 02:07:46;;;;;;;6.30;5.80;;;;;;;0.65;100.00;98632.97;4922612;29;20231;-58
2022/01/24 02:10:15;;;;;;;5.53;5.03;;;;;;;0.59;100.00;98625.47;4918434;29;20294;-60
2022/01/24 02:12:43;;;;;;;6.67;6.00;;;;;;;0.47;100.00;98630.44;4919955;29;20231;-57
2022/01/24 02:15:15;;;;;;;6.03;5.53;;;;;;;0.38;100.00;98626.56;4921321;29;20203;-60
2022/01/24 02:17:56;;;;;;;7.03;6.43;;;;;;;0.36;100.00;98627.56;4924102;29;20401;-60
2022/01/24 02:20:40;;;;;;;5.90;5.40;;;;;;;0.49;100.00;98627.75;4929210;28;20631;-58
2022/01/24 02:23:36;;;;;;;6.27;5.87;;;;;;;0.55;100.00;98619.56;4957330;28;20304;-60
2022/01/24 02:26:08;;;;;;;5.33;4.93;;;;;;;0.57;100.00;98628.16;4957542;28;20244;-59
2022/01/24 02:28:48;;;;;;;6.07;5.67;;;;;;;0.25;100.00;98633.38;4955805;28;20739;-58
2022/01/24 02:31:37;;;;;;;6.73;5.77;;;;;;;0.46;100.00;98625.31;4959824;28;20206;-56
2022/01/24 02:34:07;;;;;;;5.80;5.27;;;;;;;0.47;100.00;98620.00;4955118;28;20241;-57
2022/01/24 02:36:35;;;;;;;6.43;5.90;;;;;;;0.59;100.00;98608.03;4956291;28;20240;-59
2022/01/24 02:39:26;;;;;;;6.43;5.93;;;;;;;0.44;100.00;98609.72;4958903;28;20296;-57
2022/01/24 02:50:23;;;;;;;6.10;5.60;;;;;;;0.27;100.00;98598.47;4937586;28;20211;-57
2022/01/24 02:52:52;;;;;;;6.90;6.27;;;;;;;0.40;100.00;98598.66;4959939;28;20310;-57
2022/01/24 02:55:22;;;;;;;6.27;5.63;;;;;;;0.42;100.00;98603.75;4955736;28;20592;-58
2022/01/24 02:57:50;;;;;;;6.80;6.20;;;;;;;0.25;100.00;98602.06;4954464;28;20257;-61
2022/01/24 03:00:18;;;;;;;6.50;5.90;;;;;;;0.38;100.00;98600.50;4956739;28;20206;-57
2022/01/24 03:02:46;;;;;;;6.20;5.70;;;;;;;0.35;100.00;98594.59;4956710;28;20233;-60
2022/01/24 03:05:15;;;;;;;5.87;5.17;;;;;;;0.39;100.00;98601.31;4955955;28;20688;-58
2022/01/24 03:07:43;;;;;;;6.20;5.60;;;;;;;0.35;100.00;98599.81;4961220;28;20399;-58
2022/01/24 03:10:23;;;;;;;6.33;5.93;;;;;;;0.39;100.00;98596.09;4961628;28;20772;-56
2022/01/24 03:13:08;;;;;;;6.43;5.60;;;;;;;0.35;100.00;98597.22;4961079;28;20299;-59
2022/01/24 03:15:37;;;;;;;6.00;5.53;;;;;;;0.47;100.00;98587.88;4955778;28;20238;-57
2022/01/24 03:18:06;;;;;;;6.57;6.00;;;;;;;0.56;100.00;98588.19;4964196;28;20707;-56
2022/01/24 03:20:34;;;;;;;6.23;5.80;;;;;;;0.60;100.00;98588.03;4960145;28;20207;-57
2022/01/24 03:23:02;;;;;;;6.20;5.70;;;;;;;0.32;100.00;98600.00;4959715;28;20265;-60
2022/01/24 03:25:31;;;;;;;5.60;5.20;;;;;;;0.44;100.00;98588.88;4960630;28;20318;-60
2022/01/24 03:28:03;;;;;;;6.67;6.10;;;;;;;0.49;100.00;98592.06;4961169;28;20684;-60
2022/01/24 03:30:31;;;;;;;6.97;6.17;;;;;;;0.55;100.00;98589.09;4961259;28;20774;-59
2022/01/24 03:33:00;;;;;;;6.20;5.80;;;;;;;0.57;100.00;98584.66;4957040;28;20302;-60
2022/01/24 03:35:28;;;;;;;7.43;6.63;;;;;;;0.64;100.00;98573.88;4962332;28;20234;-58
2022/01/24 03:37:56;;;;;;;6.30;5.80;;;;;;;0.68;100.00;98570.16;4958155;28;20237;-57
2022/01/24 03:40:25;;;;;;;6.60;6.00;;;;;;;0.63;100.00;98572.19;4956298;28;20206;-58
2022/01/24 03:42:53;;;;;;;6.43;5.93;;;;;;;0.69;100.00;98572.69;4965485;28;20736;-58
2022/01/24 03:45:36;;;;;;;6.23;5.83;;;;;;;0.68;100.00;98575.38;4965951;28;20284;-60
2022/01/24 03:48:08;;;;;;;6.13;5.73;;;;;;;0.70;100.00;98570.91;4958999;28;20226;-56
2022/01/24 03:50:36;;;;;;;6.93;6.33;;;;;;;0.72;100.00;98566.47;4956649;28;20218;-58
2022/01/24 03:53:05;;;;;;;7.00;6.37;;;;;;;0.77;100.00;98572.25;4960865;28;20566;-56
2022/01/24 03:55:34;;;;;;;7.27;6.53;;;;;;;0.87;100.00;98567.34;4955394;28;20533;-53
2022/01/24 03:58:02;;;;;;;7.30;6.60;;;;;;;0.94;100.00;98570.41;4957494;28;20797;-56
2022/01/24 04:00:32;;;;;;;5.90;5.50;;;;;;;0.83;100.00;98566.66;4953435;28;20285;-57
2022/01/24 04:03:00;;;;;;;6.07;5.57;;;;;;;0.69;100.00;98564.03;4959439;28;20237;-60
2022/01/24 04:05:29;;;;;;;5.70;5.30;;;;;;;0.68;100.00;98571.00;4959485;28;20230;-59
2022/01/24 04:07:57;;;;;;;6.70;6.10;;;;;;;0.64;100.00;98560.84;4959958;28;20708;-55
2022/01/24 04:10:27;;;;;;;7.13;6.53;;;;;;;0.76;100.00;98562.75;4954253;28;20709;-58
2022/01/24 04:12:55;;;;;;;6.27;5.77;;;;;;;0.94;100.00;98566.06;4956311;28;20568;-58
2022/01/24 04:15:42;;;;;;;6.07;5.57;;;;;;;0.90;100.00;98568.91;4955365;28;20710;-55
2022/01/24 04:18:37;;;;;;;6.33;5.73;;;;;;;0.84;100.00;98560.53;4957372;28;20225;-58
2022/01/24 04:21:20;;;;;;;5.43;5.03;;;;;;;0.63;100.00;98551.34;4953375;28;20238;-59
2022/01/24 04:23:54;;;;;;;7.17;6.57;;;;;;;0.61;100.00;98553.19;4958494;28;20301;-59
2022/01/24 04:26:22;;;;;;;8.07;7.37;;;;;;;0.86;100.00;98553.44;4954935;28;20317;-60
2022/01/24 04:28:50;;;;;;;6.80;6.30;;;;;;;0.67;100.00;98547.63;4959526;28;20620;-61
2022/01/24 04:31:19;;;;;;;6.03;5.30;;;;;;;0.53;100.00;98546.63;4958421;28;20218;-58
2022/01/24 04:33:49;;;;;;;6.40;5.87;;;;;;;0.52;100.00;98550.16;4959303;28;20289;-58
2022/01/24 04:36:18;;;;;;;6.57;5.97;;;;;;;0.59;100.00;98545.44;4959345;28;20284;-61
2022/01/24 04:38:46;;;;;;;5.97;5.47;;;;;;;0.89;100.00;98554.19;4961408;28;20238;-58
2022/01/24 04:41:19;;;;;;;5.70;5.23;;;;;;;0.91;100.00;98560.16;4960546;28;20907;-59
2022/01/24 04:43:54;;;;;;;5.50;5.10;;;;;;;0.88;100.00;98566.41;4956346;28;20688;-58
2022/01/24 04:52:24;;;;;;;5.70;5.20;;;;;;;0.70;100.00;98563.91;4919402;28;20618;-60
2022/01/24 04:54:52;;;;;;;5.03;4.50;;;;;;;1.03;100.00;98572.53;4938563;28;20294;-61
2022/01/24 04:57:22;;;;;;;5.97;5.47;;;;;;;1.01;100.00;98570.00;4939074;28;20258;-60
2022/01/24 04:59:52;;;;;;;5.37;4.97;;;;;;;0.85;100.00;98566.59;4937729;28;20206;-57
2022/01/24 05:02:21;;;;;;;5.67;5.00;;;;;;;0.97;100.00;98575.50;4937893;28;20717;-60
2022/01/24 05:04:53;;;;;;;5.73;5.23;;;;;;;0.86;100.00;98573.50;4939291;28;20231;-56
2022/01/24 05:07:21;;;;;;;5.30;4.90;;;;;;;0.92;100.00;98569.66;4937491;28;20650;-60
2022/01/24 05:09:55;;;;;;;5.13;4.73;;;;;;;0.82;100.00;98562.38;4939032;28;20314;-60
2022/01/24 05:12:32;;;;;;;5.20;4.90;;;;;;;0.99;100.00;98571.03;4939253;28;20284;-60
2022/01/24 05:23:32;;;;;;;5.37;4.97;;;;;;;0.67;100.00;98571.91;4934139;28;20339;-58
2022/01/24 05:26:03;;;;;;;5.47;5.07;;;;;;;0.87;100.00;98569.97;4934787;28;20659;-57
2022/01/24 05:28:34;;;;;;;6.10;5.60;;;;;;;0.93;100.00;98571.34;4936307;28;20310;-61
2022/01/24 05:31:02;;;;;;;5.90;5.40;;;;;;;0.84;100.00;98578.78;4932788;28;20210;-58
2022/01/24 05:33:31;;;;;;;5.13;4.83;;;;;;;0.85;100.00;98570.03;4934734;28;20207;-61
2022/01/24 05:36:00;;;;;;;6.73;5.63;;;;;;;0.77;100.00;98580.06;4933733;28;20221;-60
2022/01/24 05:38:29;;;;;;;6.53;5.17;;;;;;;0.90;100.00;98576.75;4934777;28;20274;-60
2022/01/24 05:41:02;;;;;;;8.27;6.07;;;;;;;0.81;100.00;98578.16;4935128;28;20298;-60
2022/01/24 05:43:30;;;;;;;6.43;5.80;;;;;;;0.85;100.00;98577.84;4930482;28;20215;-62
2022/01/24 05:45:58;;;;;;;6.23;5.77;;;;;;;0.95;100.00;98580.78;4934686;28;20254;-57
2022/01/24 05:48:26;;;;;;;5.93;5.43;;;;;;;0.82;100.00;98583.25;4934190;28;20302;-54
2022/01/24 05:50:54;;;;;;;5.90;5.40;;;;;;;0.75;100.00;98587.16;4931259;28;20235;-59
2022/01/24 05:53:24;;;;;;;6.40;5.90;;;;;;;0.85;100.00;98582.25;4932620;28;20293;-58
2022/01/24 05:55:53;;;;;;;7.73;6.67;;;;;;;0.99;100.00;98592.72;4935025;28;20883;-61
2022/01/24 05:58:21;;;;;;;6.73;6.13;;;;;;;0.79;100.00;98585.22;4954469;28;20365;-59
2022/01/24 06:00:49;;;;;;;8.17;6.50;;;;;;;0.62;100.00;98586.19;4956098;28;20790;-61
2022/01/24 06:03:18;;;;;;;5.90;5.47;;;;;;;0.76;100.00;98578.41;4956326;28;20301;-60
2022/01/24 06:05:46;;;;;;;5.97;5.57;;;;;;;0.89;100.00;98581.16;4955726;28;20233;-60
2022/01/24 06:08:14;;;;;;;7.07;6.37;;;;;;;0.91;100.00;98587.13;4954918;28;20258;-58
2022/01/24 06:10:45;;;;;;;9.90;6.27;;;;;;;0.86;100.00;98589.16;4953838;28;20229;-56
2022/01/24 06:13:13;;;;;;;6.80;6.20;;;;;;;0.88;100.00;98597.75;4958357;28;20232;-60
2022/01/24 06:15:42;;;;;;;6.23;5.80;;;;;;;0.76;100.00;98594.06;4952997;28;20234;-58
2022/01/24 06:18:10;;;;;;;7.37;6.67;;;;;;;0.70;100.00;98604.84;4954691;28;20253;-57
2022/01/24 06:20:43;;;;;;;6.17;5.67;;;;;;;0.89;100.00;98598.56;4952834;28;20688;-57
2022/01/24 06:23:13;;;;;;;6.13;5.70;;;;;;;0.80;100.00;98603.38;4956973;28;20265;-59
2022/01/24 06:25:41;;;;;;;10.63;9.53;;;;;;;0.77;100.00;98600.94;4957907;28;20310;-59
2022/01/24 06:28:11;;;;;;;7.27;6.60;;;;;;;0.99;100.00;98600.56;4955184;28;20258;-61
2022/01/24 06:30:39;;;;;;;6.30;5.80;;;;;;;0.97;100.00;98602.41;4952748;28;20633;-54
2022/01/24 06:33:07;;;;;;;6.43;5.93;;;;;;;0.91;100.00;98596.69;4953844;28;20758;-61
2022/01/24 06:35:36;;;;;;;6.50;5.87;;;;;;;0.84;100.00;98607.50;4954413;28;20728;-58
2022/01/24 06:38:04;;;;;;;6.60;6.03;;;;;;;0.78;100.00;98602.63;4953638;28;20273;-55
2022/01/24 06:40:32;;;;;;;7.97;7.27;;;;;;;0.75;100.00;98604.56;4957092;28;20207;-56
2022/01/24 06:43:00;;;;;;;8.63;7.83;;;;;;;0.69;100.00;98600.53;4954179;28;20211;-59
2022/01/24 06:45:30;;;;;;;7.53;6.83;;;;;;;0.76;100.00;98595.81;4955467;28;20383;-57
2022/01/24 06:47:59;;;;;;;8.10;7.37;;;;;;;0.98;100.00;98603.28;4956211;28;20226;-59
2022/01/24 06:50:27;;;;;;;16.90;13.60;;;;;;;0.89;100.00;98606.38;4955981;28;20234;-59
2022/01/24 06:52:55;;;;;;;9.77;8.73;;;;;;;0.85;100.00;98613.56;4957597;28;20673;-57
2022/01/24 06:55:23;;;;;;;8.83;7.57;;;;;;;0.87;100.00;98614.31;4954135;28;20948;-59
2022/01/24 06:57:51;;;;;;;9.00;8.20;;;;;;;0.98;100.00;98616.31;4952865;28;20254;-60
2022/01/24 07:00:25;;;;;;;9.47;8.60;;;;;;;0.85;100.00;98617.00;4957438;28;20250;-60
2022/01/24 07:02:55;;;;;;;9.30;7.70;;;;;;;0.83;100.00;98621.47;4955420;28;20219;-59
2022/01/24 07:05:23;;;;;;;8.90;8.10;;;;;;;0.77;100.00;98634.03;4955045;28;20234;-61
2022/01/24 07:07:52;;;;;;;9.43;8.57;;;;;;;1.04;100.00;98634.25;4958005;28;20230;-59
2022/01/24 07:10:20;;;;;;;9.90;8.87;;;;;;;0.91;100.00;98635.84;4954090;28;20238;-57
2022/01/24 07:12:58;;;;;;;9.80;8.90;;;;;;;0.91;100.00;98623.66;4952935;28;20710;-58
2022/01/24 07:15:32;;;;;;;9.90;8.80;;;;;;;1.18;100.00;98635.22;4958088;28;20210;-57
2022/01/24 07:20:57;;;;;;;8.50;7.67;;;;;;;1.40;100.00;98640.88;4919322;29;20204;-61
2022/01/24 07:23:25;;;;;;;9.00;7.30;;;;;;;1.47;100.00;98640.50;4919397;29;20210;-59
2022/01/24 07:25:59;;;;;;;7.43;6.67;;;;;;;1.35;100.00;98644.66;4917423;29;20524;-57
2022/01/24 07:28:27;;;;;;;6.83;6.13;;;;;;;1.31;100.00;98649.22;4919329;29;20263;-60
2022/01/24 07:30:55;;;;;;;9.27;8.33;;;;;;;1.18;100.00;98643.91;4918676;29;20298;-57
2022/01/24 07:33:25;;;;;;;8.00;7.20;;;;;;;1.17;100.00;98649.19;4918589;29;20322;-60
2022/01/24 07:35:53;;;;;;;9.00;8.20;;;;;;;1.25;100.00;98654.81;4918754;29;20208;-58
2022/01/24 07:38:21;;;;;;;7.40;6.73;;;;;;;1.36;100.00;98660.28;4918198;29;20247;-58
2022/01/24 07:40:51;;;;;;;6.10;5.60;;;;;;;1.29;100.00;98658.91;4920982;29;20586;-59
2022/01/24 07:43:19;;;;;;;7.13;6.47;;;;;;;1.20;100.00;98651.63;4917367;29;20872;-55
2022/01/24 07:45:48;;;;;;;7.23;6.63;;;;;;;1.21;100.00;98662.00;4918528;29;20311;-60
2022/01/24 07:48:18;;;;;;;7.80;7.20;;;;;;;1.19;100.00;98666.47;4917275;29;20236;-61
2022/01/24 07:50:51;;;;;;;8.70;7.70;;;;;;;1.34;100.00;98663.88;4920597;29;20227;-59
2022/01/24 07:53:20;;;;;;;8.80;6.07;;;;;;;1.49;100.00;98672.59;4921561;29;21076;-56
2022/01/24 07:56:08;;;;;;;7.57;6.37;;;;;;;1.46;100.00;98670.16;4931440;28;20242;-59
2022/01/24 07:58:37;;;;;;;11.13;7.63;;;;;;;1.45;100.00;98674.53;4957673;28;20277;-63
2022/01/24 08:01:05;;;;;;;12.10;7.30;;;;;;;1.37;100.00;98668.94;4958390;28;20635;-61
2022/01/24 08:03:34;;;;;;;9.13;6.97;;;;;;;1.67;100.00;98668.91;4960712;28;20254;-59
2022/01/24 08:06:04;;;;;;;7.17;6.40;;;;;;;1.64;100.00;98670.88;4974623;28;20214;-60
2022/01/24 08:08:32;;;;;;;9.07;6.33;;;;;;;1.67;100.00;98668.91;4973123;28;20222;-59
2022/01/24 08:11:00;;;;;;;6.63;6.03;;;;;;;1.55;100.00;98675.72;4961004;28;20293;-57
2022/01/24 08:13:28;;;;;;;9.20;7.60;;;;;;;1.68;100.00;98673.19;4956681;28;20281;-58
2022/01/24 08:15:56;;;;;;;6.90;5.77;;;;;;;1.62;100.00;98675.34;4955528;28;20219;-58
2022/01/24 08:18:25;;;;;;;7.50;6.57;;;;;;;1.69;100.00;98672.25;4956107;28;20608;-58
2022/01/24 08:20:53;;;;;;;6.63;6.00;;;;;;;1.85;100.00;98666.97;4957012;28;20210;-57
2022/01/24 08:23:22;;;;;;;6.90;6.20;;;;;;;1.80;100.00;98669.00;4957539;28;20309;-59
2022/01/24 08:25:55;;;;;;;7.27;6.17;;;;;;;1.73;100.00;98668.56;4955928;28;20206;-58
2022/01/24 08:28:23;;;;;;;7.17;6.47;;;;;;;1.97;100.00;98675.84;4959702;28;20598;-56
2022/01/24 08:30:52;;;;;;;8.67;7.87;;;;;;;1.81;100.00;98686.38;4955787;28;20261;-60
2022/01/24 08:33:21;;;;;;;7.27;6.57;;;;;;;1.84;100.00;98685.34;4958030;28;20202;-59
2022/01/24 08:35:51;;;;;;;8.57;7.83;;;;;;;1.98;100.00;98685.38;4956384;28;20231;-58
2022/01/24 08:38:20;;;;;;;7.77;6.73;;;;;;;2.16;100.00;98687.81;4954675;28;20365;-59
2022/01/24 08:40:53;;;;;;;7.90;6.43;;;;;;;2.03;100.00;98685.91;4957042;28;20704;-56
2022/01/24 08:43:36;;;;;;;6.83;6.17;;;;;;;2.06;100.00;98684.91;4957136;28;20206;-58
2022/01/24 08:46:05;;;;;;;5.93;5.27;;;;;;;1.90;100.00;98687.59;4958268;28;20573;-59
2022/01/24 08:48:35;;;;;;;6.43;5.93;;;;;;;2.05;100.00;98682.38;4957160;28;20786;-57
2022/01/24 08:51:04;;;;;;;6.23;5.63;;;;;;;2.15;100.00;98686.13;4955468;28;20207;-59
2022/01/24 08:53:34;;;;;;;5.27;4.77;;;;;;;2.08;100.00;98684.81;4958053;28;20276;-57
2022/01/24 08:56:06;;;;;;;5.53;5.00;;;;;;;2.21;100.00;98680.53;4958345;28;20210;-54
2022/01/24 08:58:36;;;;;;;4.90;4.60;;;;;;;2.19;100.00;98684.16;4957255;28;20230;-56
2022/01/24 09:01:04;;;;;;;5.00;4.23;;;;;;;2.13;100.00;98680.16;4954060;28;20231;-55
2022/01/24 09:03:39;;;;;;;4.67;4.37;;;;;;;2.15;100.00;98683.50;4954274;28;20345;-54
2022/01/24 09:06:09;;;;;;;5.07;4.67;;;;;;;2.39;100.00;98688.16;4958465;28;20206;-58
2022/01/24 09:08:37;;;;;;;4.77;4.33;;;;;;;2.42;100.00;98690.59;4956568;28;20234;-55
2022/01/24 09:11:07;;;;;;;5.90;4.63;;;;;;;2.07;100.00;98685.72;4955297;28;20243;-59
2022/01/24 09:13:35;;;;;;;5.27;4.87;;;;;;;2.19;100.00;98692.84;4957056;28;20284;-58
2022/01/24 09:16:04;;;;;;;5.57;5.07;;;;;;;2.07;100.00;98696.19;4954689;28;21342;-60
2022/01/24 09:18:32;;;;;;;6.73;5.77;;;;;;;2.17;100.00;98692.94;4955982;28;20412;-54
2022/01/24 09:21:00;;;;;;;4.97;4.57;;;;;;;2.23;100.00;98696.97;4959266;28;20235;-60
2022/01/24 09:23:28;;;;;;;4.73;4.33;;;;;;;2.49;100.00;98697.13;4959310;28;20202;-60
2022/01/24 09:25:57;;;;;;;5.23;4.83;;;;;;;2.70;100.00;98691.47;4956272;28;20882;-55
2022/01/24 09:28:26;;;;;;;4.77;4.37;;;;;;;2.80;100.00;98686.50;4959355;28;20277;-60
2022/01/24 09:30:55;;;;;;;5.40;4.53;;;;;;;2.86;100.00;98686.13;4955458;28;20541;-59
2022/01/24 09:33:23;;;;;;;4.47;4.17;;;;;;;2.98;100.00;98693.16;4956186;28;20399;-57
2022/01/24 09:35:53;;;;;;;6.10;4.90;;;;;;;3.10;100.00;98690.72;4956803;28;20673;-57
2022/01/24 09:38:23;;;;;;;5.70;5.20;;;;;;;3.28;100.00;98684.28;4953490;28;20245;-61
2022/01/24 09:40:52;;;;;;;7.37;6.17;;;;;;;3.53;100.00;98685.28;4959531;28;20230;-57
2022/01/24 09:43:20;;;;;;;5.83;5.33;;;;;;;3.50;100.00;98684.63;4959022;28;20211;-57
2022/01/24 09:45:49;;;;;;;4.67;4.33;;;;;;;3.47;100.00;98678.66;4960600;28;20750;-57
2022/01/24 09:48:18;;;;;;;4.57;4.17;;;;;;;3.75;100.00;98687.31;4954964;28;20321;-56
2022/01/24 09:50:50;;;;;;;5.37;4.97;;;;;;;3.59;100.00;98684.00;4957270;28;20249;-62
2022/01/24 09:53:19;;;;;;;8.33;5.17;;;;;;;3.49;100.00;98689.03;4957648;28;20712;-62
2022/01/24 09:55:47;;;;;;;4.40;4.20;;;;;;;3.64;100.00;98694.19;4953448;28;20293;-61
2022/01/24 09:58:16;;;;;;;7.07;4.10;;;;;;;3.66;100.00;98692.31;4956322;28;20659;-61
2022/01/24 10:00:45;;;;;;;4.27;3.97;;;;;;;3.42;100.00;98690.41;4955307;28;20206;-61
2022/01/24 10:03:15;;;;;;;4.07;3.77;;;;;;;3.32;100.00;98680.50;4955596;28;20238;-62
2022/01/24 10:06:04;;;;;;;4.33;3.93;;;;;;;3.54;100.00;98699.22;4956117;28;20217;-60
2022/01/24 10:08:32;;;;;;;4.60;4.30;;;;;;;3.96;100.00;98705.13;4954525;28;20245;-59
2022/01/24 10:11:03;;;;;;;4.13;3.83;;;;;;;4.16;100.00;98695.88;4951396;28;20207;-61
2022/01/24 10:16:28;;;;;;;4.43;4.13;;;;;;;4.38;100.00;98698.84;4958094;28;20198;-62
2022/01/24 10:19:14;;;;;;;4.50;4.23;;;;;;;4.57;100.00;98696.56;4955644;28;20226;-56
2022/01/24 10:22:02;;;;;;;5.67;5.10;;;;;;;4.56;100.00;98691.47;4952988;28;20212;-60
2022/01/24 10:24:36;;;;;;;3.97;3.67;;;;;;;4.01;100.00;98689.94;4955967;28;20210;-61
2022/01/24 10:27:08;;;;;;;3.47;3.23;;;;;;;4.04;100.00;98692.34;4955030;28;20227;-62
2022/01/24 10:29:42;;;;;;;3.63;3.43;;;;;;;4.33;100.00;98696.53;4956160;28;20288;-60
2022/01/24 10:32:28;;;;;;;4.03;3.73;;;;;;;4.89;100.00;98684.72;4953493;28;20207;-62
2022/01/24 10:34:57;;;;;;;80.17;50.57;;;;;;;4.86;100.00;98666.56;4955293;28;20210;-61
2022/01/24 10:37:25;;;;;;;20.67;15.80;;;;;;;4.88;100.00;98680.41;4958472;28;20257;-60
2022/01/24 10:39:58;;;;;;;15.17;11.67;;;;;;;4.66;100.00;98681.97;4954815;28;20566;-60
2022/01/24 10:45:22;;;;;;;19.43;13.60;;;;;;;4.38;100.00;98668.16;4940714;28;20716;-58
2022/01/24 10:47:54;;;;;;;41.43;27.47;;;;;;;4.19;100.00;98655.50;4958188;28;20478;-57
2022/01/24 10:50:28;;;;;;;33.63;22.63;;;;;;;4.17;100.00;98665.25;4957287;28;20233;-58
2022/01/24 10:52:57;;;;;;;28.50;19.63;;;;;;;4.36;100.00;98662.19;4952190;28;20207;-60
2022/01/24 10:55:27;;;;;;;92.30;57.60;;;;;;;4.03;100.00;98666.22;4954907;28;20203;-58
2022/01/24 10:57:59;;;;;;;6.97;6.27;;;;;;;3.72;100.00;98669.16;4956669;28;20257;-58
2022/01/24 11:00:29;;;;;;;43.80;28.30;;;;;;;3.94;100.00;98662.44;4952495;28;20214;-59
2022/01/24 11:03:00;;;;;;;10.13;8.17;;;;;;;4.12;100.00;98667.38;4955422;28;20416;-59
2022/01/24 11:05:33;;;;;;;3.83;3.63;;;;;;;3.94;100.00;98658.97;4953396;28;20231;-59
2022/01/24 11:08:03;;;;;;;6.57;5.83;;;;;;;3.90;100.00;98658.34;4954806;28;20241;-58
2022/01/24 11:10:32;;;;;;;4.00;3.60;;;;;;;3.94;100.00;98658.97;4954035;28;20973;-60
2022/01/24 11:13:03;;;;;;;4.80;4.40;;;;;;;4.01;100.00;98655.84;4954308;28;20911;-57
2022/01/24 11:15:31;;;;;;;4.93;4.53;;;;;;;3.66;100.00;98645.13;4956439;28;20227;-59
2022/01/24 11:18:01;;;;;;;5.37;4.93;;;;;;;3.82;100.00;98645.78;4955333;28;20343;-60
2022/01/24 11:20:32;;;;;;;4.97;4.47;;;;;;;3.79;100.00;98642.50;4958298;28;20225;-60
2022/01/24 11:23:01;;;;;;;5.27;4.80;;;;;;;3.92;100.00;98645.97;4958526;28;20261;-59
2022/01/24 11:25:31;;;;;;;5.50;5.10;;;;;;;4.11;100.00;98644.72;4958158;28;20659;-59
2022/01/24 11:27:59;;;;;;;4.90;4.60;;;;;;;3.89;100.00;98646.19;4957433;28;20578;-58
2022/01/24 11:30:32;;;;;;;6.37;4.87;;;;;;;3.83;100.00;98643.97;4965919;28;20297;-60
2022/01/24 11:33:09;;;;;;;4.80;4.40;;;;;;;3.76;100.00;98638.31;4959498;28;20208;-58
2022/01/24 11:35:41;;;;;;;4.70;4.30;;;;;;;3.60;100.00;98639.38;4959193;28;21134;-60
2022/01/24 11:38:29;;;;;;;9.80;8.90;;;;;;;3.52;100.00;98640.81;4958414;28;20295;-59
2022/01/24 11:41:00;;;;;;;5.77;5.27;;;;;;;3.78;100.00;98636.41;4955168;28;20241;-59
2022/01/24 11:43:33;;;;;;;5.93;5.53;;;;;;;3.83;100.00;98633.50;4956915;28;20643;-61
2022/01/24 11:46:07;;;;;;;6.83;4.87;;;;;;;3.92;100.00;98630.22;4955045;28;20739;-57
2022/01/24 11:48:38;;;;;;;6.03;5.00;;;;;;;3.91;100.00;98639.91;4958329;28;20675;-59
2022/01/24 11:51:11;;;;;;;5.00;4.60;;;;;;;4.18;100.00;98632.84;4958993;28;20253;-57
2022/01/24 11:53:42;;;;;;;4.50;4.10;;;;;;;4.20;100.00;98626.53;4961517;28;20217;-62
2022/01/24 11:56:25;;;;;;;5.83;5.37;;;;;;;3.84;100.00;98627.31;4960243;28;20270;-59
2022/01/24 11:59:19;;;;;;;4.30;4.00;;;;;;;3.92;100.00;98625.00;4959241;28;20222;-57
2022/01/24 12:01:54;;;;;;;6.37;4.77;;;;;;;3.99;100.00;98623.63;4958798;28;20218;-57
2022/01/24 12:04:54;;;;;;;3.70;3.37;;;;;;;3.81;100.00;98622.28;4962576;28;20488;-58
2022/01/24 12:07:26;;;;;;;4.40;3.97;;;;;;;3.71;100.00;98624.69;4960082;28;20222;-60
2022/01/24 12:09:56;;;;;;;3.97;3.67;;;;;;;4.04;100.00;98624.16;4960828;28;20231;-61
2022/01/24 12:12:42;;;;;;;4.50;4.20;;;;;;;4.29;100.00;98622.41;4958396;28;20620;-60
2022/01/24 12:15:12;;;;;;;4.63;4.27;;;;;;;4.35;100.00;98611.47;4959654;28;20234;-60
2022/01/24 12:17:47;;;;;;;5.83;4.67;;;;;;;4.31;100.00;98615.28;4958768;28;20960;-60
2022/01/24 12:20:47;;;;;;;5.43;5.03;;;;;;;4.05;100.00;98614.47;4957292;28;20458;-61
2022/01/24 12:23:38;;;;;;;5.47;5.00;;;;;;;3.68;100.00;98620.50;4959299;28;20265;-63
2022/01/24 12:26:31;;;;;;;3.37;3.07;;;;;;;3.67;100.00;98610.97;4967102;28;20210;-61
2022/01/24 12:29:03;;;;;;;4.00;3.70;;;;;;;3.71;100.00;98609.81;4973798;28;20234;-61
2022/01/24 12:31:34;;;;;;;4.50;4.10;;;;;;;3.57;100.00;98605.50;4973530;28;20214;-57
2022/01/24 12:34:08;;;;;;;5.03;4.43;;;;;;;3.52;100.00;98606.75;4957846;28;20624;-61
2022/01/24 12:37:02;;;;;;;4.00;3.70;;;;;;;3.79;100.00;98600.56;4962112;28;20209;-59
2022/01/24 12:39:54;;;;;;;4.90;4.50;;;;;;;3.71;100.00;98596.69;4951814;28;20255;-59
2022/01/24 12:42:40;;;;;;;5.10;4.60;;;;;;;3.63;100.00;98593.78;4956934;28;20246;-57
2022/01/24 12:48:11;;;;;;;4.77;4.37;;;;;;;3.83;100.00;98588.91;4953377;28;20230;-56
2022/01/24 12:50:43;;;;;;;5.33;4.67;;;;;;;3.72;100.00;98593.13;4954662;28;20234;-59
2022/01/24 12:53:14;;;;;;;4.60;4.30;;;;;;;3.99;100.00;98586.94;4957192;28;20794;-60
2022/01/24 12:55:45;;;;;;;5.80;5.30;;;;;;;4.02;100.00;98591.94;4957635;28;20206;-62
2022/01/24 12:58:13;;;;;;;4.60;4.20;;;;;;;3.97;100.00;98588.78;4960680;28;20254;-62
2022/01/24 13:00:45;;;;;;;4.80;4.17;;;;;;;4.11;100.00;98582.56;4957437;28;20320;-61
2022/01/24 13:03:16;;;;;;;5.60;5.10;;;;;;;3.90;100.00;98595.41;4956870;28;20355;-61
2022/01/24 13:05:44;;;;;;;5.33;4.83;;;;;;;4.04;100.00;98592.69;4956383;28;20209;-60
2022/01/24 13:08:15;;;;;;;4.80;4.40;;;;;;;4.11;100.00;98589.63;4958057;28;20253;-60